Terminal Aerodrome Forecast
Issued by NWS

Home | Current Version | Previous Version | Text Only | Print | Product List | Glossary Off
Versions: 1 2 3 4 5 6 7 8 9 10 11 12 13 14 15 16 17 18

000
FTUS43 KMPX 240745 AAA
TAFRWF
TAF AMD
KRWF 240745Z 2408/2506 12012G18KT 3SM BR OVC004
     FM241600 14014G20KT P6SM BKN008 OVC014
     FM241800 15014G22KT P6SM VCSH SCT020 BKN035
     FM242000 16017G25KT P6SM VCTS SCT025CB OVC040
      TEMPO 2502/2506 2SM TSRA OVC015CB=

USA.gov is the U.S. government's official web portal to all federal, state and local government web resources and services.